sensor_id;sensor_type;location;lat;lon;timestamp;P1;durP1;ratioP1;P2;durP2;ratioP2
1082;SDS011;530;51.448;7.238;2022-12-07T00:01:24;27.80;;;22.83;;
1082;SDS011;530;51.448;7.238;2022-12-07T00:03:57;27.97;;;22.37;;
1082;SDS011;530;51.448;7.238;2022-12-07T00:06:31;28.53;;;22.43;;
1082;SDS011;530;51.448;7.238;2022-12-07T00:08:58;28.73;;;23.40;;
1082;SDS011;530;51.448;7.238;2022-12-07T00:11:24;28.37;;;21.53;;
1082;SDS011;530;51.448;7.238;2022-12-07T00:13:54;28.07;;;21.77;;
1082;SDS011;530;51.448;7.238;2022-12-07T00:16:25;29.40;;;22.37;;
1082;SDS011;530;51.448;7.238;2022-12-07T00:18:53;30.87;;;24.00;;
1082;SDS011;530;51.448;7.238;2022-12-07T00:21:20;26.60;;;21.10;;
1082;SDS011;530;51.448;7.238;2022-12-07T00:23:48;26.30;;;20.90;;
1082;SDS011;530;51.448;7.238;2022-12-07T00:28:46;26.77;;;20.80;;
1082;SDS011;530;51.448;7.238;2022-12-07T00:31:13;29.40;;;21.10;;
1082;SDS011;530;51.448;7.238;2022-12-07T00:33:40;23.03;;;19.03;;
1082;SDS011;530;51.448;7.238;2022-12-07T00:36:07;25.13;;;20.90;;
1082;SDS011;530;51.448;7.238;2022-12-07T00:38:35;30.83;;;21.30;;
1082;SDS011;530;51.448;7.238;2022-12-07T00:41:03;25.57;;;20.13;;
1082;SDS011;530;51.448;7.238;2022-12-07T00:43:30;26.23;;;20.47;;
1082;SDS011;530;51.448;7.238;2022-12-07T00:45:56;25.53;;;20.73;;
1082;SDS011;530;51.448;7.238;2022-12-07T00:48:22;27.63;;;21.63;;
1082;SDS011;530;51.448;7.238;2022-12-07T00:50:48;25.73;;;20.83;;
1082;SDS011;530;51.448;7.238;2022-12-07T00:53:14;24.63;;;21.13;;
1082;SDS011;530;51.448;7.238;2022-12-07T00:55:40;27.70;;;21.60;;
1082;SDS011;530;51.448;7.238;2022-12-07T00:58:06;25.97;;;21.77;;
1082;SDS011;530;51.448;7.238;2022-12-07T01:00:32;29.03;;;22.50;;
1082;SDS011;530;51.448;7.238;2022-12-07T01:03:00;29.97;;;22.80;;
1082;SDS011;530;51.448;7.238;2022-12-07T01:05:25;26.87;;;21.90;;
1082;SDS011;530;51.448;7.238;2022-12-07T01:07:51;28.23;;;21.27;;
1082;SDS011;530;51.448;7.238;2022-12-07T01:10:16;29.97;;;22.20;;
1082;SDS011;530;51.448;7.238;2022-12-07T01:12:42;33.30;;;24.77;;
1082;SDS011;530;51.448;7.238;2022-12-07T01:15:08;34.43;;;24.10;;
1082;SDS011;530;51.448;7.238;2022-12-07T01:17:34;34.47;;;25.00;;
1082;SDS011;530;51.448;7.238;2022-12-07T01:20:00;33.20;;;24.27;;
1082;SDS011;530;51.448;7.238;2022-12-07T01:22:26;34.80;;;25.03;;
1082;SDS011;530;51.448;7.238;2022-12-07T01:24:52;32.47;;;24.70;;
1082;SDS011;530;51.448;7.238;2022-12-07T01:27:18;31.03;;;24.10;;
1082;SDS011;530;51.448;7.238;2022-12-07T01:29:43;38.13;;;25.93;;
1082;SDS011;530;51.448;7.238;2022-12-07T01:32:09;37.37;;;26.37;;
1082;SDS011;530;51.448;7.238;2022-12-07T01:34:35;36.57;;;27.17;;
1082;SDS011;530;51.448;7.238;2022-12-07T01:37:01;36.10;;;26.20;;
1082;SDS011;530;51.448;7.238;2022-12-07T01:39:27;33.17;;;25.43;;
1082;SDS011;530;51.448;7.238;2022-12-07T01:41:53;36.53;;;26.83;;
1082;SDS011;530;51.448;7.238;2022-12-07T01:44:22;35.43;;;25.80;;
1082;SDS011;530;51.448;7.238;2022-12-07T01:46:52;35.67;;;27.87;;
1082;SDS011;530;51.448;7.238;2022-12-07T01:52:26;30.97;;;24.93;;
1082;SDS011;530;51.448;7.238;2022-12-07T01:55:03;37.03;;;25.80;;
1082;SDS011;530;51.448;7.238;2022-12-07T01:57:32;36.30;;;27.07;;
1082;SDS011;530;51.448;7.238;2022-12-07T02:00:01;35.40;;;26.13;;
1082;SDS011;530;51.448;7.238;2022-12-07T02:02:35;41.07;;;27.97;;
1082;SDS011;530;51.448;7.238;2022-12-07T02:05:07;39.33;;;26.13;;
1082;SDS011;530;51.448;7.238;2022-12-07T02:07:34;33.50;;;25.77;;
1082;SDS011;530;51.448;7.238;2022-12-07T02:15:25;33.20;;;24.47;;
1082;SDS011;530;51.448;7.238;2022-12-07T02:35:40;31.03;;;23.53;;
1082;SDS011;530;51.448;7.238;2022-12-07T02:38:19;31.90;;;22.40;;
1082;SDS011;530;51.448;7.238;2022-12-07T02:41:07;32.17;;;23.57;;
1082;SDS011;530;51.448;7.238;2022-12-07T02:43:45;27.57;;;20.77;;
1082;SDS011;530;51.448;7.238;2022-12-07T02:46:19;31.60;;;22.63;;
1082;SDS011;530;51.448;7.238;2022-12-07T02:48:48;31.50;;;23.67;;
1082;SDS011;530;51.448;7.238;2022-12-07T02:51:17;36.10;;;23.30;;
1082;SDS011;530;51.448;7.238;2022-12-07T02:53:43;34.10;;;23.97;;
1082;SDS011;530;51.448;7.238;2022-12-07T02:59:02;32.67;;;21.83;;
1082;SDS011;530;51.448;7.238;2022-12-07T03:07:06;30.57;;;24.43;;
1082;SDS011;530;51.448;7.238;2022-12-07T03:09:59;33.10;;;22.97;;
1082;SDS011;530;51.448;7.238;2022-12-07T03:12:37;30.00;;;22.40;;
1082;SDS011;530;51.448;7.238;2022-12-07T03:15:29;33.07;;;22.23;;
1082;SDS011;530;51.448;7.238;2022-12-07T03:18:03;31.60;;;22.47;;
1082;SDS011;530;51.448;7.238;2022-12-07T03:20:30;35.53;;;23.80;;
1082;SDS011;530;51.448;7.238;2022-12-07T03:22:59;27.83;;;21.50;;
1082;SDS011;530;51.448;7.238;2022-12-07T03:25:26;28.20;;;21.73;;
1082;SDS011;530;51.448;7.238;2022-12-07T03:27:53;28.80;;;21.43;;
1082;SDS011;530;51.448;7.238;2022-12-07T03:30:23;26.23;;;20.33;;
1082;SDS011;530;51.448;7.238;2022-12-07T03:33:16;30.83;;;22.23;;
1082;SDS011;530;51.448;7.238;2022-12-07T03:35:44;27.27;;;21.60;;
1082;SDS011;530;51.448;7.238;2022-12-07T03:38:32;30.93;;;21.63;;
1082;SDS011;530;51.448;7.238;2022-12-07T03:41:16;32.03;;;21.60;;
1082;SDS011;530;51.448;7.238;2022-12-07T03:43:47;30.23;;;22.27;;
1082;SDS011;530;51.448;7.238;2022-12-07T03:48:46;27.40;;;20.23;;
1082;SDS011;530;51.448;7.238;2022-12-07T03:54:06;26.30;;;20.07;;
1082;SDS011;530;51.448;7.238;2022-12-07T03:56:52;32.00;;;20.10;;
1082;SDS011;530;51.448;7.238;2022-12-07T03:59:19;25.90;;;19.43;;
1082;SDS011;530;51.448;7.238;2022-12-07T04:01:53;26.10;;;19.37;;
1082;SDS011;530;51.448;7.238;2022-12-07T04:04:21;28.83;;;21.40;;
1082;SDS011;530;51.448;7.238;2022-12-07T04:06:48;27.00;;;19.70;;
1082;SDS011;530;51.448;7.238;2022-12-07T04:09:14;26.70;;;18.57;;
1082;SDS011;530;51.448;7.238;2022-12-07T04:11:40;25.40;;;18.70;;
1082;SDS011;530;51.448;7.238;2022-12-07T04:14:05;24.87;;;18.50;;
1082;SDS011;530;51.448;7.238;2022-12-07T04:16:43;24.60;;;19.50;;
1082;SDS011;530;51.448;7.238;2022-12-07T04:19:10;23.50;;;19.43;;
1082;SDS011;530;51.448;7.238;2022-12-07T04:21:36;26.73;;;19.90;;
1082;SDS011;530;51.448;7.238;2022-12-07T04:24:01;24.67;;;17.47;;
1082;SDS011;530;51.448;7.238;2022-12-07T04:26:27;23.37;;;18.50;;
1082;SDS011;530;51.448;7.238;2022-12-07T04:28:53;24.07;;;18.07;;
1082;SDS011;530;51.448;7.238;2022-12-07T04:31:19;25.77;;;18.97;;
1082;SDS011;530;51.448;7.238;2022-12-07T04:33:44;24.97;;;19.00;;
1082;SDS011;530;51.448;7.238;2022-12-07T04:36:10;28.10;;;19.67;;
1082;SDS011;530;51.448;7.238;2022-12-07T04:38:36;23.37;;;18.33;;
1082;SDS011;530;51.448;7.238;2022-12-07T04:41:05;29.50;;;20.10;;
1082;SDS011;530;51.448;7.238;2022-12-07T04:43:31;28.40;;;20.00;;
1082;SDS011;530;51.448;7.238;2022-12-07T04:45:57;25.73;;;18.77;;
1082;SDS011;530;51.448;7.238;2022-12-07T04:48:22;29.13;;;19.67;;
1082;SDS011;530;51.448;7.238;2022-12-07T04:50:48;27.10;;;19.97;;
1082;SDS011;530;51.448;7.238;2022-12-07T04:53:16;26.60;;;18.83;;
1082;SDS011;530;51.448;7.238;2022-12-07T04:55:42;26.00;;;19.60;;
1082;SDS011;530;51.448;7.238;2022-12-07T04:58:09;26.87;;;17.00;;
1082;SDS011;530;51.448;7.238;2022-12-07T05:00:35;22.37;;;17.80;;
1082;SDS011;530;51.448;7.238;2022-12-07T05:03:00;26.77;;;18.20;;
1082;SDS011;530;51.448;7.238;2022-12-07T05:05:26;26.30;;;17.63;;
1082;SDS011;530;51.448;7.238;2022-12-07T05:07:52;23.80;;;18.87;;
1082;SDS011;530;51.448;7.238;2022-12-07T05:10:17;25.23;;;18.60;;
1082;SDS011;530;51.448;7.238;2022-12-07T05:12:43;22.93;;;17.90;;
1082;SDS011;530;51.448;7.238;2022-12-07T05:15:09;22.70;;;16.90;;
1082;SDS011;530;51.448;7.238;2022-12-07T05:17:34;26.50;;;17.17;;
1082;SDS011;530;51.448;7.238;2022-12-07T05:20:00;26.43;;;16.70;;
1082;SDS011;530;51.448;7.238;2022-12-07T05:22:26;20.90;;;16.73;;
1082;SDS011;530;51.448;7.238;2022-12-07T05:24:53;27.47;;;17.90;;
1082;SDS011;530;51.448;7.238;2022-12-07T05:27:19;23.87;;;16.07;;
1082;SDS011;530;51.448;7.238;2022-12-07T05:29:45;23.83;;;17.47;;
1082;SDS011;530;51.448;7.238;2022-12-07T05:32:11;22.27;;;16.63;;
1082;SDS011;530;51.448;7.238;2022-12-07T05:34:36;25.27;;;17.27;;
1082;SDS011;530;51.448;7.238;2022-12-07T05:37:02;21.97;;;15.70;;
1082;SDS011;530;51.448;7.238;2022-12-07T05:39:28;21.17;;;15.83;;
1082;SDS011;530;51.448;7.238;2022-12-07T05:41:53;28.20;;;17.10;;
1082;SDS011;530;51.448;7.238;2022-12-07T05:44:38;20.77;;;16.23;;
1082;SDS011;530;51.448;7.238;2022-12-07T05:47:04;25.83;;;16.77;;
1082;SDS011;530;51.448;7.238;2022-12-07T05:49:30;23.73;;;17.97;;
1082;SDS011;530;51.448;7.238;2022-12-07T05:51:55;22.70;;;16.27;;
1082;SDS011;530;51.448;7.238;2022-12-07T05:54:21;23.43;;;15.87;;
1082;SDS011;530;51.448;7.238;2022-12-07T05:56:47;25.33;;;16.90;;
1082;SDS011;530;51.448;7.238;2022-12-07T05:59:12;22.10;;;16.30;;
1082;SDS011;530;51.448;7.238;2022-12-07T06:01:48;23.50;;;16.70;;
1082;SDS011;530;51.448;7.238;2022-12-07T06:04:17;25.03;;;17.70;;
1082;SDS011;530;51.448;7.238;2022-12-07T06:06:44;26.87;;;20.37;;
1082;SDS011;530;51.448;7.238;2022-12-07T06:09:09;24.37;;;18.00;;
1082;SDS011;530;51.448;7.238;2022-12-07T06:11:36;26.63;;;18.67;;
1082;SDS011;530;51.448;7.238;2022-12-07T06:14:21;29.10;;;19.63;;
1082;SDS011;530;51.448;7.238;2022-12-07T06:16:46;29.00;;;17.87;;
1082;SDS011;530;51.448;7.238;2022-12-07T06:19:12;27.87;;;18.43;;
1082;SDS011;530;51.448;7.238;2022-12-07T06:21:38;25.10;;;18.57;;
1082;SDS011;530;51.448;7.238;2022-12-07T06:24:04;24.90;;;17.50;;
1082;SDS011;530;51.448;7.238;2022-12-07T06:26:30;23.53;;;17.73;;
1082;SDS011;530;51.448;7.238;2022-12-07T06:28:56;21.00;;;16.73;;
1082;SDS011;530;51.448;7.238;2022-12-07T06:31:22;30.90;;;18.00;;
1082;SDS011;530;51.448;7.238;2022-12-07T06:33:47;22.63;;;16.33;;
1082;SDS011;530;51.448;7.238;2022-12-07T06:36:13;22.10;;;17.20;;
1082;SDS011;530;51.448;7.238;2022-12-07T06:38:38;23.13;;;16.27;;
1082;SDS011;530;51.448;7.238;2022-12-07T06:41:04;20.43;;;15.00;;
1082;SDS011;530;51.448;7.238;2022-12-07T06:43:31;19.13;;;16.43;;
1082;SDS011;530;51.448;7.238;2022-12-07T06:45:57;21.70;;;16.47;;
1082;SDS011;530;51.448;7.238;2022-12-07T06:48:23;20.77;;;15.77;;
1082;SDS011;530;51.448;7.238;2022-12-07T06:50:49;22.40;;;16.57;;
1082;SDS011;530;51.448;7.238;2022-12-07T06:53:14;23.40;;;16.13;;
1082;SDS011;530;51.448;7.238;2022-12-07T06:55:40;22.07;;;15.30;;
1082;SDS011;530;51.448;7.238;2022-12-07T06:58:06;21.40;;;16.27;;
1082;SDS011;530;51.448;7.238;2022-12-07T07:00:32;20.60;;;14.73;;
1082;SDS011;530;51.448;7.238;2022-12-07T07:02:59;18.77;;;13.93;;
1082;SDS011;530;51.448;7.238;2022-12-07T07:05:25;21.93;;;14.70;;
1082;SDS011;530;51.448;7.238;2022-12-07T07:07:51;17.43;;;14.30;;
1082;SDS011;530;51.448;7.238;2022-12-07T07:10:17;18.70;;;14.33;;
1082;SDS011;530;51.448;7.238;2022-12-07T07:12:42;17.90;;;14.10;;
1082;SDS011;530;51.448;7.238;2022-12-07T07:15:08;17.50;;;14.23;;
1082;SDS011;530;51.448;7.238;2022-12-07T07:17:34;17.53;;;14.60;;
1082;SDS011;530;51.448;7.238;2022-12-07T07:20:00;20.53;;;13.80;;
1082;SDS011;530;51.448;7.238;2022-12-07T07:22:26;19.77;;;13.60;;
1082;SDS011;530;51.448;7.238;2022-12-07T07:24:51;17.50;;;12.90;;
1082;SDS011;530;51.448;7.238;2022-12-07T07:27:17;14.70;;;12.47;;
1082;SDS011;530;51.448;7.238;2022-12-07T07:29:43;18.10;;;12.70;;
1082;SDS011;530;51.448;7.238;2022-12-07T07:32:08;14.90;;;12.60;;
1082;SDS011;530;51.448;7.238;2022-12-07T07:34:34;18.70;;;12.00;;
1082;SDS011;530;51.448;7.238;2022-12-07T07:36:59;14.97;;;12.37;;
1082;SDS011;530;51.448;7.238;2022-12-07T07:39:26;16.00;;;13.40;;
1082;SDS011;530;51.448;7.238;2022-12-07T07:41:51;14.53;;;11.60;;
1082;SDS011;530;51.448;7.238;2022-12-07T07:44:17;15.03;;;10.47;;
1082;SDS011;530;51.448;7.238;2022-12-07T07:46:42;17.43;;;11.93;;
1082;SDS011;530;51.448;7.238;2022-12-07T07:49:09;17.30;;;11.30;;
1082;SDS011;530;51.448;7.238;2022-12-07T07:51:35;14.03;;;11.20;;
1082;SDS011;530;51.448;7.238;2022-12-07T07:54:02;14.70;;;11.50;;
1082;SDS011;530;51.448;7.238;2022-12-07T07:56:28;15.40;;;11.03;;
1082;SDS011;530;51.448;7.238;2022-12-07T07:58:54;16.03;;;10.70;;
1082;SDS011;530;51.448;7.238;2022-12-07T08:01:20;17.60;;;11.17;;
1082;SDS011;530;51.448;7.238;2022-12-07T08:03:46;14.70;;;10.90;;
1082;SDS011;530;51.448;7.238;2022-12-07T08:06:12;14.07;;;10.50;;
1082;SDS011;530;51.448;7.238;2022-12-07T08:08:38;17.20;;;11.10;;
1082;SDS011;530;51.448;7.238;2022-12-07T08:11:07;18.10;;;11.50;;
1082;SDS011;530;51.448;7.238;2022-12-07T08:13:33;15.07;;;10.90;;
1082;SDS011;530;51.448;7.238;2022-12-07T08:16:03;15.33;;;11.00;;
1082;SDS011;530;51.448;7.238;2022-12-07T08:18:39;16.53;;;11.93;;
1082;SDS011;530;51.448;7.238;2022-12-07T08:21:06;18.03;;;11.57;;
1082;SDS011;530;51.448;7.238;2022-12-07T08:23:34;15.57;;;10.50;;
1082;SDS011;530;51.448;7.238;2022-12-07T08:26:00;17.43;;;10.80;;
1082;SDS011;530;51.448;7.238;2022-12-07T08:28:27;20.10;;;10.43;;
1082;SDS011;530;51.448;7.238;2022-12-07T08:31:13;15.03;;;10.80;;
1082;SDS011;530;51.448;7.238;2022-12-07T08:33:41;15.47;;;10.63;;
1082;SDS011;530;51.448;7.238;2022-12-07T08:36:08;17.13;;;10.97;;
1082;SDS011;530;51.448;7.238;2022-12-07T08:38:36;19.17;;;10.60;;
1082;SDS011;530;51.448;7.238;2022-12-07T08:41:03;17.10;;;11.20;;
1082;SDS011;530;51.448;7.238;2022-12-07T08:43:29;16.53;;;11.30;;
1082;SDS011;530;51.448;7.238;2022-12-07T08:48:58;16.80;;;11.40;;
1082;SDS011;530;51.448;7.238;2022-12-07T08:51:35;17.53;;;11.13;;
1082;SDS011;530;51.448;7.238;2022-12-07T08:54:02;13.30;;;11.10;;
1082;SDS011;530;51.448;7.238;2022-12-07T08:56:31;14.03;;;11.97;;
1082;SDS011;530;51.448;7.238;2022-12-07T08:58:57;14.60;;;11.50;;
1082;SDS011;530;51.448;7.238;2022-12-07T09:01:23;13.60;;;11.47;;
1082;SDS011;530;51.448;7.238;2022-12-07T09:03:49;14.70;;;12.57;;
1082;SDS011;530;51.448;7.238;2022-12-07T09:06:14;14.83;;;10.93;;
1082;SDS011;530;51.448;7.238;2022-12-07T09:08:41;15.60;;;11.57;;
1082;SDS011;530;51.448;7.238;2022-12-07T09:11:11;14.17;;;11.70;;
1082;SDS011;530;51.448;7.238;2022-12-07T09:13:36;14.10;;;10.67;;
1082;SDS011;530;51.448;7.238;2022-12-07T09:16:02;16.97;;;11.07;;
1082;SDS011;530;51.448;7.238;2022-12-07T09:18:28;12.10;;;10.10;;
1082;SDS011;530;51.448;7.238;2022-12-07T09:20:53;12.93;;;10.47;;
1082;SDS011;530;51.448;7.238;2022-12-07T09:23:20;14.63;;;11.40;;
1082;SDS011;530;51.448;7.238;2022-12-07T09:25:46;15.90;;;11.63;;
1082;SDS011;530;51.448;7.238;2022-12-07T09:28:11;15.20;;;10.97;;
1082;SDS011;530;51.448;7.238;2022-12-07T09:30:37;14.80;;;10.67;;
1082;SDS011;530;51.448;7.238;2022-12-07T09:33:03;15.77;;;11.37;;
1082;SDS011;530;51.448;7.238;2022-12-07T09:35:29;19.90;;;11.67;;
1082;SDS011;530;51.448;7.238;2022-12-07T09:37:54;21.33;;;13.40;;
1082;SDS011;530;51.448;7.238;2022-12-07T09:40:20;20.10;;;13.50;;
1082;SDS011;530;51.448;7.238;2022-12-07T09:42:48;17.80;;;13.73;;
1082;SDS011;530;51.448;7.238;2022-12-07T09:45:19;20.00;;;14.47;;
1082;SDS011;530;51.448;7.238;2022-12-07T09:47:49;17.73;;;13.90;;
1082;SDS011;530;51.448;7.238;2022-12-07T09:50:16;21.33;;;14.20;;
1082;SDS011;530;51.448;7.238;2022-12-07T09:52:50;19.03;;;14.43;;
1082;SDS011;530;51.448;7.238;2022-12-07T09:55:27;17.20;;;14.60;;
1082;SDS011;530;51.448;7.238;2022-12-07T09:57:54;21.00;;;13.90;;
1082;SDS011;530;51.448;7.238;2022-12-07T10:00:21;19.67;;;15.03;;
1082;SDS011;530;51.448;7.238;2022-12-07T10:05:24;20.37;;;13.83;;
1082;SDS011;530;51.448;7.238;2022-12-07T10:08:01;22.97;;;15.13;;
1082;SDS011;530;51.448;7.238;2022-12-07T10:10:31;19.67;;;13.87;;
1082;SDS011;530;51.448;7.238;2022-12-07T10:13:06;13.70;;;11.40;;
1082;SDS011;530;51.448;7.238;2022-12-07T10:15:53;13.20;;;10.83;;
1082;SDS011;530;51.448;7.238;2022-12-07T10:18:32;15.40;;;11.10;;
1082;SDS011;530;51.448;7.238;2022-12-07T10:23:39;17.00;;;11.57;;
1082;SDS011;530;51.448;7.238;2022-12-07T10:26:20;14.80;;;11.43;;
1082;SDS011;530;51.448;7.238;2022-12-07T10:28:47;18.30;;;11.77;;
1082;SDS011;530;51.448;7.238;2022-12-07T10:31:17;17.23;;;11.87;;
1082;SDS011;530;51.448;7.238;2022-12-07T10:39:12;15.23;;;10.43;;
1082;SDS011;530;51.448;7.238;2022-12-07T10:41:56;11.97;;;9.00;;
1082;SDS011;530;51.448;7.238;2022-12-07T10:44:24;12.73;;;10.30;;
1082;SDS011;530;51.448;7.238;2022-12-07T10:49:44;15.00;;;10.00;;
1082;SDS011;530;51.448;7.238;2022-12-07T10:52:32;19.93;;;10.47;;
1082;SDS011;530;51.448;7.238;2022-12-07T10:57:55;15.27;;;10.33;;
1082;SDS011;530;51.448;7.238;2022-12-07T11:00:24;15.73;;;9.70;;
1082;SDS011;530;51.448;7.238;2022-12-07T11:08:47;15.37;;;9.20;;
1082;SDS011;530;51.448;7.238;2022-12-07T11:11:00;13.43;;;8.67;;
1082;SDS011;530;51.448;7.238;2022-12-07T11:13:53;13.23;;;8.53;;
1082;SDS011;530;51.448;7.238;2022-12-07T11:25:00;13.37;;;8.90;;
1082;SDS011;530;51.448;7.238;2022-12-07T11:27:37;11.67;;;8.33;;
1082;SDS011;530;51.448;7.238;2022-12-07T11:30:23;12.10;;;7.90;;
1082;SDS011;530;51.448;7.238;2022-12-07T11:41:44;13.37;;;8.17;;
1082;SDS011;530;51.448;7.238;2022-12-07T11:46:47;11.70;;;8.80;;
1082;SDS011;530;51.448;7.238;2022-12-07T11:51:44;16.37;;;8.90;;
1082;SDS011;530;51.448;7.238;2022-12-07T11:54:15;13.83;;;8.60;;
1082;SDS011;530;51.448;7.238;2022-12-07T11:56:45;15.50;;;9.00;;
1082;SDS011;530;51.448;7.238;2022-12-07T11:59:27;9.43;;;8.30;;
1082;SDS011;530;51.448;7.238;2022-12-07T12:02:13;10.23;;;8.20;;
1082;SDS011;530;51.448;7.238;2022-12-07T12:07:14;12.80;;;9.47;;
1082;SDS011;530;51.448;7.238;2022-12-07T12:09:54;14.40;;;8.20;;
1082;SDS011;530;51.448;7.238;2022-12-07T12:15:03;12.27;;;8.57;;
1082;SDS011;530;51.448;7.238;2022-12-07T12:20:36;11.87;;;8.90;;
1082;SDS011;530;51.448;7.238;2022-12-07T12:23:17;10.73;;;9.50;;
1082;SDS011;530;51.448;7.238;2022-12-07T12:25:46;10.87;;;9.00;;
1082;SDS011;530;51.448;7.238;2022-12-07T12:28:50;12.50;;;9.00;;
1082;SDS011;530;51.448;7.238;2022-12-07T12:36:17;11.67;;;9.00;;
1082;SDS011;530;51.448;7.238;2022-12-07T12:54:14;12.77;;;9.13;;
1082;SDS011;530;51.448;7.238;2022-12-07T12:59:32;9.40;;;6.60;;
1082;SDS011;530;51.448;7.238;2022-12-07T13:08:19;9.47;;;6.77;;
1082;SDS011;530;51.448;7.238;2022-12-07T13:26:19;11.60;;;7.80;;
1082;SDS011;530;51.448;7.238;2022-12-07T13:31:33;8.40;;;7.20;;
1082;SDS011;530;51.448;7.238;2022-12-07T13:34:01;9.90;;;7.53;;
1082;SDS011;530;51.448;7.238;2022-12-07T13:36:29;11.57;;;8.33;;
1082;SDS011;530;51.448;7.238;2022-12-07T13:39:16;9.07;;;7.63;;
1082;SDS011;530;51.448;7.238;2022-12-07T13:41:44;11.80;;;7.00;;
1082;SDS011;530;51.448;7.238;2022-12-07T13:44:16;7.97;;;7.13;;
1082;SDS011;530;51.448;7.238;2022-12-07T13:49:37;9.87;;;6.93;;
1082;SDS011;530;51.448;7.238;2022-12-07T13:52:15;11.10;;;8.03;;
1082;SDS011;530;51.448;7.238;2022-12-07T13:54:56;9.80;;;6.90;;
1082;SDS011;530;51.448;7.238;2022-12-07T13:57:24;11.17;;;7.17;;
1082;SDS011;530;51.448;7.238;2022-12-07T13:59:51;10.20;;;7.07;;
1082;SDS011;530;51.448;7.238;2022-12-07T14:02:24;11.57;;;7.57;;
1082;SDS011;530;51.448;7.238;2022-12-07T14:05:05;10.00;;;7.77;;
1082;SDS011;530;51.448;7.238;2022-12-07T14:07:34;14.27;;;7.90;;
1082;SDS011;530;51.448;7.238;2022-12-07T14:10:03;11.93;;;8.20;;
1082;SDS011;530;51.448;7.238;2022-12-07T14:12:31;12.17;;;9.40;;
1082;SDS011;530;51.448;7.238;2022-12-07T14:14:58;13.33;;;9.43;;
1082;SDS011;530;51.448;7.238;2022-12-07T14:17:26;14.90;;;9.17;;
1082;SDS011;530;51.448;7.238;2022-12-07T14:19:53;12.73;;;8.60;;
1082;SDS011;530;51.448;7.238;2022-12-07T14:24:59;6.00;;;5.20;;
1082;SDS011;530;51.448;7.238;2022-12-07T14:30:21;7.10;;;6.33;;
1082;SDS011;530;51.448;7.238;2022-12-07T14:32:51;7.20;;;5.43;;
1082;SDS011;530;51.448;7.238;2022-12-07T14:35:19;6.07;;;5.20;;
1082;SDS011;530;51.448;7.238;2022-12-07T14:37:47;6.90;;;6.30;;
1082;SDS011;530;51.448;7.238;2022-12-07T14:40:21;6.97;;;6.20;;
1082;SDS011;530;51.448;7.238;2022-12-07T14:43:11;7.67;;;6.87;;
1082;SDS011;530;51.448;7.238;2022-12-07T14:45:39;10.83;;;5.73;;
1082;SDS011;530;51.448;7.238;2022-12-07T14:48:05;9.57;;;7.50;;
1082;SDS011;530;51.448;7.238;2022-12-07T14:50:36;9.17;;;7.40;;
1082;SDS011;530;51.448;7.238;2022-12-07T14:53:16;9.30;;;7.17;;
1082;SDS011;530;51.448;7.238;2022-12-07T14:55:43;7.50;;;6.80;;
1082;SDS011;530;51.448;7.238;2022-12-07T14:58:13;7.83;;;5.80;;
1082;SDS011;530;51.448;7.238;2022-12-07T15:00:40;8.87;;;6.13;;
1082;SDS011;530;51.448;7.238;2022-12-07T15:03:07;9.83;;;5.90;;
1082;SDS011;530;51.448;7.238;2022-12-07T15:05:33;6.27;;;5.63;;
1082;SDS011;530;51.448;7.238;2022-12-07T15:07:59;6.17;;;5.37;;
1082;SDS011;530;51.448;7.238;2022-12-07T15:10:26;6.63;;;5.33;;
1082;SDS011;530;51.448;7.238;2022-12-07T15:13:00;17.97;;;8.10;;
1082;SDS011;530;51.448;7.238;2022-12-07T15:15:47;10.37;;;7.07;;
1082;SDS011;530;51.448;7.238;2022-12-07T15:18:14;15.60;;;7.93;;
1082;SDS011;530;51.448;7.238;2022-12-07T15:20:40;7.60;;;6.10;;
1082;SDS011;530;51.448;7.238;2022-12-07T15:23:06;6.83;;;5.07;;
1082;SDS011;530;51.448;7.238;2022-12-07T15:25:32;7.63;;;4.97;;
1082;SDS011;530;51.448;7.238;2022-12-07T15:27:58;6.17;;;5.33;;
1082;SDS011;530;51.448;7.238;2022-12-07T15:30:23;10.10;;;7.10;;
1082;SDS011;530;51.448;7.238;2022-12-07T15:32:49;20.33;;;15.77;;
1082;SDS011;530;51.448;7.238;2022-12-07T15:35:16;12.00;;;9.47;;
1082;SDS011;530;51.448;7.238;2022-12-07T15:37:41;10.57;;;9.10;;
1082;SDS011;530;51.448;7.238;2022-12-07T15:40:07;12.20;;;10.93;;
1082;SDS011;530;51.448;7.238;2022-12-07T15:42:34;17.80;;;14.43;;
1082;SDS011;530;51.448;7.238;2022-12-07T15:45:00;11.77;;;9.53;;
1082;SDS011;530;51.448;7.238;2022-12-07T15:47:29;14.23;;;10.47;;
1082;SDS011;530;51.448;7.238;2022-12-07T15:49:56;9.00;;;7.67;;
1082;SDS011;530;51.448;7.238;2022-12-07T15:52:22;9.97;;;6.77;;
1082;SDS011;530;51.448;7.238;2022-12-07T15:54:48;8.83;;;7.03;;
1082;SDS011;530;51.448;7.238;2022-12-07T15:57:13;10.10;;;7.87;;
1082;SDS011;530;51.448;7.238;2022-12-07T15:59:39;8.73;;;7.50;;
1082;SDS011;530;51.448;7.238;2022-12-07T16:02:05;8.80;;;7.00;;
1082;SDS011;530;51.448;7.238;2022-12-07T16:04:30;13.20;;;8.83;;
1082;SDS011;530;51.448;7.238;2022-12-07T16:06:56;7.63;;;6.53;;
1082;SDS011;530;51.448;7.238;2022-12-07T16:09:22;10.43;;;6.30;;
1082;SDS011;530;51.448;7.238;2022-12-07T16:11:48;7.93;;;5.40;;
1082;SDS011;530;51.448;7.238;2022-12-07T16:14:15;7.43;;;5.57;;
1082;SDS011;530;51.448;7.238;2022-12-07T16:16:41;7.00;;;5.37;;
1082;SDS011;530;51.448;7.238;2022-12-07T16:19:07;10.53;;;5.10;;
1082;SDS011;530;51.448;7.238;2022-12-07T16:21:33;6.37;;;5.17;;
1082;SDS011;530;51.448;7.238;2022-12-07T16:24:00;10.37;;;5.50;;
1082;SDS011;530;51.448;7.238;2022-12-07T16:26:26;6.67;;;4.73;;
1082;SDS011;530;51.448;7.238;2022-12-07T16:28:52;6.53;;;4.60;;
1082;SDS011;530;51.448;7.238;2022-12-07T16:31:21;6.60;;;5.40;;
1082;SDS011;530;51.448;7.238;2022-12-07T16:33:48;6.60;;;5.30;;
1082;SDS011;530;51.448;7.238;2022-12-07T16:36:15;6.90;;;5.37;;
1082;SDS011;530;51.448;7.238;2022-12-07T16:38:42;6.23;;;5.00;;
1082;SDS011;530;51.448;7.238;2022-12-07T16:41:08;10.83;;;6.07;;
1082;SDS011;530;51.448;7.238;2022-12-07T16:43:35;5.93;;;4.90;;
1082;SDS011;530;51.448;7.238;2022-12-07T16:46:01;8.30;;;5.67;;
1082;SDS011;530;51.448;7.238;2022-12-07T16:48:28;6.03;;;5.43;;
1082;SDS011;530;51.448;7.238;2022-12-07T16:50:53;6.30;;;5.53;;
1082;SDS011;530;51.448;7.238;2022-12-07T16:53:20;10.60;;;5.70;;
1082;SDS011;530;51.448;7.238;2022-12-07T16:55:46;7.63;;;5.70;;
1082;SDS011;530;51.448;7.238;2022-12-07T16:58:12;9.30;;;5.33;;
1082;SDS011;530;51.448;7.238;2022-12-07T17:00:39;7.67;;;5.60;;
1082;SDS011;530;51.448;7.238;2022-12-07T17:03:05;6.23;;;5.63;;
1082;SDS011;530;51.448;7.238;2022-12-07T17:05:32;9.47;;;5.90;;
1082;SDS011;530;51.448;7.238;2022-12-07T17:07:58;10.30;;;6.20;;
1082;SDS011;530;51.448;7.238;2022-12-07T17:10:24;9.93;;;6.93;;
1082;SDS011;530;51.448;7.238;2022-12-07T17:12:50;8.87;;;5.97;;
1082;SDS011;530;51.448;7.238;2022-12-07T17:15:16;9.97;;;6.53;;
1082;SDS011;530;51.448;7.238;2022-12-07T17:17:47;10.10;;;7.07;;
1082;SDS011;530;51.448;7.238;2022-12-07T17:20:20;8.90;;;7.70;;
1082;SDS011;530;51.448;7.238;2022-12-07T17:22:47;10.90;;;6.97;;
1082;SDS011;530;51.448;7.238;2022-12-07T17:25:13;12.23;;;7.40;;
1082;SDS011;530;51.448;7.238;2022-12-07T17:27:39;9.37;;;6.83;;
1082;SDS011;530;51.448;7.238;2022-12-07T17:30:06;12.97;;;11.57;;
1082;SDS011;530;51.448;7.238;2022-12-07T17:32:33;20.80;;;18.50;;
1082;SDS011;530;51.448;7.238;2022-12-07T17:34:58;22.30;;;17.53;;
1082;SDS011;530;51.448;7.238;2022-12-07T17:37:25;18.00;;;14.13;;
1082;SDS011;530;51.448;7.238;2022-12-07T17:39:51;12.53;;;8.70;;
1082;SDS011;530;51.448;7.238;2022-12-07T17:42:18;12.40;;;8.93;;
1082;SDS011;530;51.448;7.238;2022-12-07T17:45:04;9.17;;;8.27;;
1082;SDS011;530;51.448;7.238;2022-12-07T17:47:32;16.97;;;8.90;;
1082;SDS011;530;51.448;7.238;2022-12-07T17:49:58;14.00;;;8.87;;
1082;SDS011;530;51.448;7.238;2022-12-07T17:52:24;11.30;;;7.17;;